sensor_id;sensor_type;location;lat;lon;timestamp;pressure;altitude;pressure_sealevel;temperature;humidity
9229;BME280;4649;42.644;23.284;2023-04-01T00:55:49;91981.22;;;9.97;62.20
9229;BME280;4649;42.644;23.284;2023-04-01T01:09:33;91968.66;;;9.63;61.85
9229;BME280;4649;42.644;23.284;2023-04-01T01:15:49;92137.50;;;11.03;62.16
9229;BME280;4649;42.644;23.284;2023-04-01T01:21:51;92073.19;;;10.78;60.47
9229;BME280;4649;42.644;23.284;2023-04-01T01:25:07;92095.91;;;10.88;61.01
9229;BME280;4649;42.644;23.284;2023-04-01T01:59:47;91928.63;;;10.86;51.29
9229;BME280;4649;42.644;23.284;2023-04-01T02:05:53;91951.09;;;11.07;55.58
9229;BME280;4649;42.644;23.284;2023-04-01T02:40:19;92072.91;;;12.03;53.44
9229;BME280;4649;42.644;23.284;2023-04-01T02:46:12;92045.84;;;11.77;54.53
9229;BME280;4649;42.644;23.284;2023-04-01T03:17:56;91905.19;;;10.19;55.99
9229;BME280;4649;42.644;23.284;2023-04-01T03:29:02;91916.88;;;10.39;61.40
9229;BME280;4649;42.644;23.284;2023-04-01T03:34:54;91898.19;;;10.10;61.57
9229;BME280;4649;42.644;23.284;2023-04-01T03:38:02;92094.16;;;11.47;65.47
9229;BME280;4649;42.644;23.284;2023-04-01T03:47:58;91980.63;;;9.85;77.47
9229;BME280;4649;42.644;23.284;2023-04-01T03:51:05;91931.38;;;9.01;81.44
9229;BME280;4649;42.644;23.284;2023-04-01T03:54:08;92031.56;;;9.58;82.57
9229;BME280;4649;42.644;23.284;2023-04-01T03:56:51;91878.25;;;8.90;77.42
9229;BME280;4649;42.644;23.284;2023-04-01T03:59:31;91959.31;;;9.64;76.93
9229;BME280;4649;42.644;23.284;2023-04-01T05:37:48;91836.16;;;17.92;44.42
9229;BME280;4649;42.644;23.284;2023-04-01T05:40:16;91834.88;;;20.02;40.85
9229;BME280;4649;42.644;23.284;2023-04-01T05:42:43;91912.31;;;22.08;37.12
9229;BME280;4649;42.644;23.284;2023-04-01T05:45:10;91882.72;;;22.96;34.02
9229;BME280;4649;42.644;23.284;2023-04-01T05:47:37;91886.09;;;24.22;31.98
9229;BME280;4649;42.644;23.284;2023-04-01T05:50:04;91893.69;;;26.15;28.31
9229;BME280;4649;42.644;23.284;2023-04-01T05:52:31;91889.69;;;23.77;28.59
9229;BME280;4649;42.644;23.284;2023-04-01T05:55:00;91855.88;;;23.90;29.35
9229;BME280;4649;42.644;23.284;2023-04-01T05:57:27;91846.34;;;24.41;28.61
9229;BME280;4649;42.644;23.284;2023-04-01T05:59:53;91810.63;;;24.33;27.67
9229;BME280;4649;42.644;23.284;2023-04-01T06:02:20;91893.03;;;23.87;27.85
9229;BME280;4649;42.644;23.284;2023-04-01T06:04:47;91859.72;;;22.48;30.05
9229;BME280;4649;42.644;23.284;2023-04-01T06:07:15;91900.16;;;22.02;30.78
9229;BME280;4649;42.644;23.284;2023-04-01T06:09:44;91804.00;;;21.02;31.33
9229;BME280;4649;42.644;23.284;2023-04-01T06:12:36;91818.41;;;19.36;35.12
9229;BME280;4649;42.644;23.284;2023-04-01T06:15:16;91763.00;;;17.16;38.39
9229;BME280;4649;42.644;23.284;2023-04-01T06:17:56;91919.09;;;17.52;40.43
9229;BME280;4649;42.644;23.284;2023-04-01T06:20:36;91881.53;;;17.11;41.97
9229;BME280;4649;42.644;23.284;2023-04-01T06:26:12;91728.66;;;14.64;42.68
9229;BME280;4649;42.644;23.284;2023-04-01T06:29:10;91822.34;;;15.45;44.74
9229;BME280;4649;42.644;23.284;2023-04-01T06:32:17;91853.41;;;16.21;44.95
9229;BME280;4649;42.644;23.284;2023-04-01T06:35:23;91723.56;;;15.62;44.21
9229;BME280;4649;42.644;23.284;2023-04-01T06:38:08;91872.25;;;16.41;43.64
9229;BME280;4649;42.644;23.284;2023-04-01T06:40:59;91726.97;;;15.70;42.84
9229;BME280;4649;42.644;23.284;2023-04-01T06:43:42;91753.75;;;15.56;42.90
9229;BME280;4649;42.644;23.284;2023-04-01T06:46:19;91869.94;;;15.91;45.32
9229;BME280;4649;42.644;23.284;2023-04-01T06:49:02;91796.81;;;15.58;43.45
9229;BME280;4649;42.644;23.284;2023-04-01T06:51:37;91869.66;;;16.43;44.28
9229;BME280;4649;42.644;23.284;2023-04-01T06:54:09;91838.69;;;16.48;42.70
9229;BME280;4649;42.644;23.284;2023-04-01T06:56:41;91775.53;;;16.20;44.51
9229;BME280;4649;42.644;23.284;2023-04-01T06:59:12;91812.81;;;16.25;43.34
9229;BME280;4649;42.644;23.284;2023-04-01T07:01:45;91855.63;;;16.47;43.43
9229;BME280;4649;42.644;23.284;2023-04-01T07:04:16;91855.25;;;16.50;42.17
9229;BME280;4649;42.644;23.284;2023-04-01T07:06:50;91775.66;;;15.73;44.16
9229;BME280;4649;42.644;23.284;2023-04-01T07:09:20;91846.09;;;16.31;45.33
9229;BME280;4649;42.644;23.284;2023-04-01T07:11:48;91780.72;;;16.08;43.64
9229;BME280;4649;42.644;23.284;2023-04-01T07:14:20;91842.09;;;16.56;44.44
9229;BME280;4649;42.644;23.284;2023-04-01T07:16:53;91817.81;;;16.84;44.30
9229;BME280;4649;42.644;23.284;2023-04-01T07:19:27;91784.03;;;18.00;42.15
9229;BME280;4649;42.644;23.284;2023-04-01T07:22:00;91822.13;;;20.07;38.24
9229;BME280;4649;42.644;23.284;2023-04-01T07:24:32;91771.16;;;20.34;36.10
9229;BME280;4649;42.644;23.284;2023-04-01T07:27:00;91803.69;;;21.70;34.98
9229;BME280;4649;42.644;23.284;2023-04-01T07:29:27;91808.53;;;22.79;32.13
9229;BME280;4649;42.644;23.284;2023-04-01T07:32:09;91787.91;;;22.58;30.61
9229;BME280;4649;42.644;23.284;2023-04-01T07:34:49;91854.06;;;22.46;32.32
9229;BME280;4649;42.644;23.284;2023-04-01T07:37:21;91853.84;;;22.54;31.87
9229;BME280;4649;42.644;23.284;2023-04-01T07:39:55;91855.44;;;22.24;31.90
9229;BME280;4649;42.644;23.284;2023-04-01T07:42:33;91734.78;;;21.26;31.89
9229;BME280;4649;42.644;23.284;2023-04-01T07:45:13;91794.25;;;21.10;32.95
9229;BME280;4649;42.644;23.284;2023-04-01T07:47:53;91849.84;;;20.88;34.54
9229;BME280;4649;42.644;23.284;2023-04-01T07:50:27;91785.44;;;20.02;34.69
9229;BME280;4649;42.644;23.284;2023-04-01T07:53:04;91847.16;;;20.60;35.75
9229;BME280;4649;42.644;23.284;2023-04-01T07:55:39;91846.44;;;19.91;36.45
9229;BME280;4649;42.644;23.284;2023-04-01T07:58:15;91733.16;;;18.96;36.65
9229;BME280;4649;42.644;23.284;2023-04-01T08:00:51;91838.59;;;19.31;37.41
9229;BME280;4649;42.644;23.284;2023-04-01T08:03:31;91770.28;;;18.52;38.97
9229;BME280;4649;42.644;23.284;2023-04-01T08:06:05;91826.28;;;18.68;39.16
9229;BME280;4649;42.644;23.284;2023-04-01T08:08:45;91802.00;;;18.46;39.61
9229;BME280;4649;42.644;23.284;2023-04-01T08:11:22;91789.50;;;18.00;40.58
9229;BME280;4649;42.644;23.284;2023-04-01T08:13:55;91816.47;;;18.56;41.50
9229;BME280;4649;42.644;23.284;2023-04-01T08:16:32;91792.13;;;19.43;38.45
9229;BME280;4649;42.644;23.284;2023-04-01T08:19:13;91776.78;;;19.40;39.02
9229;BME280;4649;42.644;23.284;2023-04-01T08:21:45;91753.41;;;19.39;38.27
9229;BME280;4649;42.644;23.284;2023-04-01T08:24:19;91751.81;;;19.26;38.48
9229;BME280;4649;42.644;23.284;2023-04-01T08:26:50;91726.25;;;19.61;37.85
9229;BME280;4649;42.644;23.284;2023-04-01T08:29:22;91687.19;;;20.21;38.21
9229;BME280;4649;42.644;23.284;2023-04-01T08:31:53;91760.03;;;20.92;36.43
9229;BME280;4649;42.644;23.284;2023-04-01T08:34:28;91745.28;;;22.15;33.82
9229;BME280;4649;42.644;23.284;2023-04-01T08:37:00;91658.22;;;23.64;32.01
9229;BME280;4649;42.644;23.284;2023-04-01T08:39:30;91710.56;;;24.37;31.82
9229;BME280;4649;42.644;23.284;2023-04-01T08:45:18;91662.22;;;23.61;30.41
9229;BME280;4649;42.644;23.284;2023-04-01T08:51:26;91648.69;;;25.24;28.74
9229;BME280;4649;42.644;23.284;2023-04-01T08:54:13;91676.41;;;25.53;28.29
9229;BME280;4649;42.644;23.284;2023-04-01T08:56:52;91701.53;;;25.15;27.28
9229;BME280;4649;42.644;23.284;2023-04-01T08:59:33;91721.94;;;25.21;29.27
9229;BME280;4649;42.644;23.284;2023-04-01T09:02:35;91655.69;;;24.98;27.70
9229;BME280;4649;42.644;23.284;2023-04-01T09:05:25;91659.88;;;24.99;27.35
9229;BME280;4649;42.644;23.284;2023-04-01T09:08:04;91713.59;;;24.54;27.32
9229;BME280;4649;42.644;23.284;2023-04-01T09:10:53;91738.94;;;25.02;28.86
9229;BME280;4649;42.644;23.284;2023-04-01T09:13:44;91726.34;;;25.68;27.63
9229;BME280;4649;42.644;23.284;2023-04-01T09:16:23;91714.03;;;24.75;27.21
9229;BME280;4649;42.644;23.284;2023-04-01T09:19:24;91707.97;;;24.27;27.52
9229;BME280;4649;42.644;23.284;2023-04-01T09:22:15;91713.34;;;23.98;27.05
9229;BME280;4649;42.644;23.284;2023-04-01T09:25:20;91639.09;;;22.71;28.28
9229;BME280;4649;42.644;23.284;2023-04-01T09:27:56;91684.50;;;22.93;28.73
9229;BME280;4649;42.644;23.284;2023-04-01T09:30:53;91552.22;;;22.24;29.12
9229;BME280;4649;42.644;23.284;2023-04-01T09:33:43;91629.66;;;22.28;27.89
9229;BME280;4649;42.644;23.284;2023-04-01T09:36:24;91689.72;;;22.41;28.80
9229;BME280;4649;42.644;23.284;2023-04-01T09:38:56;91558.25;;;21.20;28.97
9229;BME280;4649;42.644;23.284;2023-04-01T09:41:40;91578.41;;;20.49;29.30
9229;BME280;4649;42.644;23.284;2023-04-01T09:44:18;91610.75;;;20.60;29.35
9229;BME280;4649;42.644;23.284;2023-04-01T09:47:00;91515.19;;;20.49;29.13
9229;BME280;4649;42.644;23.284;2023-04-01T09:49:57;91637.03;;;21.37;29.18
9229;BME280;4649;42.644;23.284;2023-04-01T09:52:31;91641.84;;;21.80;28.91
9229;BME280;4649;42.644;23.284;2023-04-01T09:55:14;91619.47;;;22.42;28.51
9229;BME280;4649;42.644;23.284;2023-04-01T10:01:19;91547.59;;;21.93;26.41
9229;BME280;4649;42.644;23.284;2023-04-01T10:04:16;91534.78;;;21.63;29.07
9229;BME280;4649;42.644;23.284;2023-04-01T10:10:26;91602.91;;;22.19;30.18
9229;BME280;4649;42.644;23.284;2023-04-01T10:13:14;91627.47;;;22.04;29.81
9229;BME280;4649;42.644;23.284;2023-04-01T10:16:26;91536.41;;;21.34;28.64
9229;BME280;4649;42.644;23.284;2023-04-01T10:19:21;91552.59;;;19.91;28.83
9229;BME280;4649;42.644;23.284;2023-04-01T10:22:06;91605.88;;;21.66;28.19
9229;BME280;4649;42.644;23.284;2023-04-01T10:24:56;91581.59;;;21.97;27.02
9229;BME280;4649;42.644;23.284;2023-04-01T10:28:08;91496.63;;;20.17;27.96
9229;BME280;4649;42.644;23.284;2023-04-01T10:34:09;91593.69;;;19.31;30.22
9229;BME280;4649;42.644;23.284;2023-04-01T10:36:47;91579.19;;;20.19;29.60
9229;BME280;4649;42.644;23.284;2023-04-01T10:39:51;91573.22;;;20.64;28.83
9229;BME280;4649;42.644;23.284;2023-04-01T10:49:25;91535.91;;;20.61;28.93
9229;BME280;4649;42.644;23.284;2023-04-01T10:52:18;91564.19;;;20.94;28.73
9229;BME280;4649;42.644;23.284;2023-04-01T10:55:02;91562.34;;;21.31;29.11
9229;BME280;4649;42.644;23.284;2023-04-01T11:04:35;91473.50;;;20.20;29.37
9229;BME280;4649;42.644;23.284;2023-04-01T11:07:39;91533.78;;;20.18;31.28
9229;BME280;4649;42.644;23.284;2023-04-01T11:10:38;91526.66;;;19.73;31.19
9229;BME280;4649;42.644;23.284;2023-04-01T11:13:52;91497.09;;;19.62;31.34
9229;BME280;4649;42.644;23.284;2023-04-01T11:23:23;91575.19;;;19.41;31.73
9229;BME280;4649;42.644;23.284;2023-04-01T11:26:09;91573.53;;;19.17;33.56
9229;BME280;4649;42.644;23.284;2023-04-01T11:28:54;91482.78;;;18.35;34.50
9229;BME280;4649;42.644;23.284;2023-04-01T11:31:39;91447.28;;;17.62;36.45
9229;BME280;4649;42.644;23.284;2023-04-01T11:34:20;91492.78;;;17.67;35.61
9229;BME280;4649;42.644;23.284;2023-04-01T11:36:59;91511.75;;;17.46;36.61
9229;BME280;4649;42.644;23.284;2023-04-01T11:39:37;91639.94;;;18.04;37.50
9229;BME280;4649;42.644;23.284;2023-04-01T11:42:18;91594.59;;;17.30;43.95
9229;BME280;4649;42.644;23.284;2023-04-01T11:44:56;91718.44;;;17.40;47.05
9229;BME280;4649;42.644;23.284;2023-04-01T12:27:50;91783.66;;;13.81;76.03
9229;BME280;4649;42.644;23.284;2023-04-01T16:22:10;91903.91;;;10.51;86.19
9229;BME280;4649;42.644;23.284;2023-04-01T16:25:19;91802.19;;;9.60;87.13
9229;BME280;4649;42.644;23.284;2023-04-01T16:28:21;91811.59;;;9.71;86.39
9229;BME280;4649;42.644;23.284;2023-04-01T16:30:59;91736.06;;;9.04;86.69
9229;BME280;4649;42.644;23.284;2023-04-01T16:33:52;91835.06;;;9.64;86.62
9229;BME280;4649;42.644;23.284;2023-04-01T16:36:48;91769.31;;;9.11;87.87
9229;BME280;4649;42.644;23.284;2023-04-01T16:39:45;91732.00;;;8.79;89.36
9229;BME280;4649;42.644;23.284;2023-04-01T16:42:57;91930.88;;;10.12;88.29
9229;BME280;4649;42.644;23.284;2023-04-01T16:45:56;91847.84;;;9.76;88.08
9229;BME280;4649;42.644;23.284;2023-04-01T16:48:57;91831.09;;;9.65;88.27
9229;BME280;4649;42.644;23.284;2023-04-01T16:51:37;91834.19;;;9.56;87.49
9229;BME280;4649;42.644;23.284;2023-04-01T16:59:54;91899.00;;;9.74;80.74
9229;BME280;4649;42.644;23.284;2023-04-01T17:02:30;91743.81;;;8.76;79.60
9229;BME280;4649;42.644;23.284;2023-04-01T17:05:04;91800.59;;;9.02;79.08
9229;BME280;4649;42.644;23.284;2023-04-01T17:10:56;91934.13;;;9.74;79.17
9229;BME280;4649;42.644;23.284;2023-04-01T17:13:40;91937.53;;;9.74;78.90
9229;BME280;4649;42.644;23.284;2023-04-01T17:16:48;91914.13;;;9.46;78.01
9229;BME280;4649;42.644;23.284;2023-04-01T17:19:36;91811.25;;;8.76;77.89
9229;BME280;4649;42.644;23.284;2023-04-01T17:22:22;91855.81;;;9.01;77.92
9229;BME280;4649;42.644;23.284;2023-04-01T17:25:07;91881.88;;;9.35;77.44
9229;BME280;4649;42.644;23.284;2023-04-01T17:27:42;91874.34;;;9.28;79.36
9229;BME280;4649;42.644;23.284;2023-04-01T17:30:32;91773.31;;;8.50;78.79
9229;BME280;4649;42.644;23.284;2023-04-01T17:33:13;91877.19;;;9.17;78.33
9229;BME280;4649;42.644;23.284;2023-04-01T17:35:53;91929.22;;;9.36;77.96
9229;BME280;4649;42.644;23.284;2023-04-01T17:38:39;91939.16;;;9.46;76.96
9229;BME280;4649;42.644;23.284;2023-04-01T17:41:09;91945.44;;;9.36;78.41
9229;BME280;4649;42.644;23.284;2023-04-01T17:43:44;91961.19;;;9.50;77.53
9229;BME280;4649;42.644;23.284;2023-04-01T17:46:32;91908.75;;;9.04;75.70
9229;BME280;4649;42.644;23.284;2023-04-01T17:49:12;91864.91;;;8.79;77.38
9229;BME280;4649;42.644;23.284;2023-04-01T17:51:51;91894.09;;;8.99;76.98
9229;BME280;4649;42.644;23.284;2023-04-01T17:54:26;91949.94;;;9.46;77.37
9229;BME280;4649;42.644;23.284;2023-04-01T17:57:05;91950.03;;;9.41;75.54
9229;BME280;4649;42.644;23.284;2023-04-01T17:59:36;91869.31;;;8.58;73.85
9229;BME280;4649;42.644;23.284;2023-04-01T18:02:22;91914.22;;;8.74;72.74
9229;BME280;4649;42.644;23.284;2023-04-01T18:05:24;91980.22;;;9.39;72.45
9229;BME280;4649;42.644;23.284;2023-04-01T18:08:10;91873.66;;;8.43;71.48
9229;BME280;4649;42.644;23.284;2023-04-01T18:10:49;91951.97;;;9.22;70.38
9229;BME280;4649;42.644;23.284;2023-04-01T18:13:29;91990.78;;;9.19;71.70
9229;BME280;4649;42.644;23.284;2023-04-01T18:16:17;91953.28;;;8.92;71.56
9229;BME280;4649;42.644;23.284;2023-04-01T18:18:58;91961.53;;;8.81;72.62
9229;BME280;4649;42.644;23.284;2023-04-01T18:21:50;91833.66;;;7.94;73.65
9229;BME280;4649;42.644;23.284;2023-04-01T18:49:43;92014.94;;;9.06;75.37
9229;BME280;4649;42.644;23.284;2023-04-01T18:52:50;91848.22;;;7.80;75.93
9229;BME280;4649;42.644;23.284;2023-04-01T18:55:40;91851.16;;;7.82;76.49
9229;BME280;4649;42.644;23.284;2023-04-01T18:58:18;91951.38;;;8.63;74.93
9229;BME280;4649;42.644;23.284;2023-04-01T19:00:54;91905.81;;;8.06;75.85
9229;BME280;4649;42.644;23.284;2023-04-01T19:06:44;92026.63;;;9.38;74.85
9229;BME280;4649;42.644;23.284;2023-04-01T19:09:54;91849.16;;;8.17;72.03
9229;BME280;4649;42.644;23.284;2023-04-01T19:16:03;91861.41;;;8.42;71.91
9229;BME280;4649;42.644;23.284;2023-04-01T19:19:34;91964.25;;;8.99;70.85
9229;BME280;4649;42.644;23.284;2023-04-01T19:28:50;92078.19;;;9.58;71.75
9229;BME280;4649;42.644;23.284;2023-04-01T19:32:05;91911.44;;;8.61;71.51
9229;BME280;4649;42.644;23.284;2023-04-01T20:20:30;91936.28;;;8.78;65.99
9229;BME280;4649;42.644;23.284;2023-04-01T20:23:43;92100.97;;;9.86;66.57
9229;BME280;4649;42.644;23.284;2023-04-01T20:26:48;91933.50;;;8.36;68.31
9229;BME280;4649;42.644;23.284;2023-04-01T20:37:50;91918.31;;;8.04;65.23
9229;BME280;4649;42.644;23.284;2023-04-01T20:40:40;91985.00;;;8.62;65.16
9229;BME280;4649;42.644;23.284;2023-04-01T20:43:54;91959.00;;;8.35;65.92
9229;BME280;4649;42.644;23.284;2023-04-01T20:46:50;91963.63;;;8.40;65.41
9229;BME280;4649;42.644;23.284;2023-04-01T20:49:55;92101.63;;;9.50;64.57
9229;BME280;4649;42.644;23.284;2023-04-01T20:52:38;91911.84;;;8.18;64.37
9229;BME280;4649;42.644;23.284;2023-04-01T20:58:36;91925.56;;;8.20;62.58
9229;BME280;4649;42.644;23.284;2023-04-01T21:01:15;91935.16;;;8.15;62.86
9229;BME280;4649;42.644;23.284;2023-04-01T21:04:13;91926.34;;;8.15;63.12
9229;BME280;4649;42.644;23.284;2023-04-01T21:07:19;92025.34;;;8.73;61.39
9229;BME280;4649;42.644;23.284;2023-04-01T21:10:05;92110.56;;;9.40;61.59
9229;BME280;4649;42.644;23.284;2023-04-01T21:16:44;92111.81;;;9.39;62.41
9229;BME280;4649;42.644;23.284;2023-04-01T21:19:39;92082.75;;;8.97;61.04
9229;BME280;4649;42.644;23.284;2023-04-01T21:22:49;92135.91;;;9.37;60.97
9229;BME280;4649;42.644;23.284;2023-04-01T21:26:05;92099.44;;;8.96;61.40
9229;BME280;4649;42.644;23.284;2023-04-01T21:32:30;92002.47;;;8.50;61.68
9229;BME280;4649;42.644;23.284;2023-04-01T21:35:25;91999.19;;;8.62;61.68
9229;BME280;4649;42.644;23.284;2023-04-01T21:38:23;92026.72;;;8.55;62.66
9229;BME280;4649;42.644;23.284;2023-04-01T21:41:33;91983.06;;;8.28;62.27
9229;BME280;4649;42.644;23.284;2023-04-01T21:44:39;91926.81;;;7.84;61.81
9229;BME280;4649;42.644;23.284;2023-04-01T21:51:28;92055.94;;;8.81;61.95
9229;BME280;4649;42.644;23.284;2023-04-01T22:38:12;92120.63;;;9.15;57.81
9229;BME280;4649;42.644;23.284;2023-04-01T22:46:46;91952.19;;;7.94;58.77
9229;BME280;4649;42.644;23.284;2023-04-01T22:53:25;92152.06;;;9.13;60.37
9229;BME280;4649;42.644;23.284;2023-04-01T22:56:15;91947.41;;;7.76;60.00
9229;BME280;4649;42.644;23.284;2023-04-01T22:58:54;91981.66;;;7.81;59.86
9229;BME280;4649;42.644;23.284;2023-04-01T23:14:14;91981.91;;;7.78;60.95
9229;BME280;4649;42.644;23.284;2023-04-01T23:17:00;92057.63;;;8.14;61.62
9229;BME280;4649;42.644;23.284;2023-04-01T23:19:48;92152.41;;;8.99;60.22
9229;BME280;4649;42.644;23.284;2023-04-01T23:23:05;91969.34;;;7.56;60.29
9229;BME280;4649;42.644;23.284;2023-04-01T23:26:09;92075.97;;;8.21;60.56
9229;BME280;4649;42.644;23.284;2023-04-01T23:43:14;92183.19;;;8.79;61.73
9229;BME280;4649;42.644;23.284;2023-04-01T23:46:16;92077.25;;;8.15;62.43
9229;BME280;4649;42.644;23.284;2023-04-01T23:51:53;92109.50;;;8.31;61.93
9229;BME280;4649;42.644;23.284;2023-04-01T23:54:33;92128.31;;;8.37;61.82
9229;BME280;4649;42.644;23.284;2023-04-01T23:57:26;92001.09;;;7.63;62.08
